Time;durP1;ratioP1;P1;durP2;ratioP2;P2;SDS_P1;SDS_P2;PMS_P1;PMS_P2;Temp;Humidity;BMP_temperature;BMP_pressure;BME280_temperature;BME280_humidity;BME280_pressure;Samples;Min_cycle;Max_cycle;Signal;HPM_P1;HPM_P2
2021/06/30 00:01:45;;;;;;;19.17;17.17;;;21.20;99.90;;;;;;4995160;28;20477;-53
2021/06/30 00:04:13;;;;;;;18.30;16.60;;;21.20;99.90;;;;;;4995671;28;20551;-51
2021/06/30 00:06:42;;;;;;;22.17;18.50;;;21.20;99.90;;;;;;4994877;28;20450;-50
2021/06/30 00:09:09;;;;;;;18.33;16.40;;;21.20;99.90;;;;;;4994801;28;20462;-53
2021/06/30 00:11:36;;;;;;;19.27;17.37;;;21.20;99.90;;;;;;4994754;28;20445;-48
2021/06/30 00:14:02;;;;;;;18.80;16.83;;;21.20;99.90;;;;;;4994501;28;20524;-50
2021/06/30 00:16:33;;;;;;;20.60;18.00;;;21.30;99.90;;;;;;4994711;28;20458;-49
2021/06/30 00:19:00;;;;;;;21.60;18.10;;;21.30;99.90;;;;;;4994758;28;20465;-48
2021/06/30 00:21:28;;;;;;;19.87;17.83;;;21.30;99.90;;;;;;4994537;28;20934;-46
2021/06/30 00:23:55;;;;;;;21.70;18.87;;;21.30;99.90;;;;;;4994674;28;20975;-47
2021/06/30 00:26:21;;;;;;;19.17;17.30;;;21.30;99.90;;;;;;4994675;28;20528;-48
2021/06/30 00:28:48;;;;;;;20.07;18.03;;;21.30;99.90;;;;;;5007707;28;20444;-46
2021/06/30 00:31:16;;;;;;;19.40;17.37;;;21.40;99.90;;;;;;5014338;28;20445;-51
2021/06/30 00:33:43;;;;;;;25.77;18.00;;;21.30;99.90;;;;;;5013703;28;20507;-46
2021/06/30 00:36:10;;;;;;;23.43;20.97;;;21.30;99.90;;;;;;5014170;28;21208;-50
2021/06/30 00:38:38;;;;;;;21.97;19.87;;;21.40;99.90;;;;;;5014126;28;20828;-49
2021/06/30 00:41:05;;;;;;;21.70;19.43;;;21.40;99.90;;;;;;5014025;28;20461;-48
2021/06/30 00:43:32;;;;;;;20.40;18.37;;;21.40;99.90;;;;;;4994630;28;20438;-52
2021/06/30 00:45:59;;;;;;;20.33;17.93;;;21.40;99.90;;;;;;4993983;28;20442;-52
2021/06/30 00:48:25;;;;;;;19.00;17.00;;;21.50;99.90;;;;;;4996212;28;20763;-49
2021/06/30 00:50:52;;;;;;;22.60;19.57;;;21.50;99.90;;;;;;4998625;28;20772;-47
2021/06/30 00:53:19;;;;;;;20.30;18.20;;;21.60;99.90;;;;;;5003708;28;20445;-52
2021/06/30 00:55:50;;;;;;;23.63;19.33;;;21.60;99.90;;;;;;5018185;28;20448;-51
2021/06/30 00:58:17;;;;;;;21.10;19.10;;;21.50;99.90;;;;;;5018176;28;20955;-50
2021/06/30 01:00:44;;;;;;;21.53;19.30;;;21.50;99.90;;;;;;5018241;28;20511;-47
2021/06/30 01:03:11;;;;;;;22.80;20.20;;;21.60;99.90;;;;;;5018189;28;20455;-45
2021/06/30 01:05:38;;;;;;;21.53;19.03;;;21.50;99.90;;;;;;5017533;28;20453;-45
2021/06/30 01:08:05;;;;;;;20.23;18.20;;;21.50;99.90;;;;;;5017816;28;20453;-48
2021/06/30 01:10:32;;;;;;;23.07;20.60;;;21.50;99.90;;;;;;5017864;28;20456;-48
2021/06/30 01:13:00;;;;;;;21.77;19.57;;;21.50;99.90;;;;;;5017735;28;20827;-48
2021/06/30 01:15:27;;;;;;;22.10;19.70;;;21.50;99.90;;;;;;5017384;28;20929;-49
2021/06/30 01:17:53;;;;;;;21.33;19.03;;;21.50;99.90;;;;;;5017794;28;20485;-48
2021/06/30 01:20:20;;;;;;;24.10;21.50;;;21.50;99.90;;;;;;5017625;28;20445;-48
2021/06/30 01:23:07;;;;;;;24.10;20.10;;;21.50;99.90;;;;;;5017513;28;20760;-50
2021/06/30 01:25:33;;;;;;;20.77;18.60;;;21.50;99.90;;;;;;5017322;28;20448;-52
2021/06/30 01:28:00;;;;;;;22.63;19.97;;;21.50;99.90;;;;;;5016774;28;20519;-48
2021/06/30 01:30:27;;;;;;;23.73;20.13;;;21.50;99.90;;;;;;5017409;28;20453;-45
2021/06/30 01:32:53;;;;;;;23.77;21.27;;;21.40;99.90;;;;;;5017423;28;20441;-53
2021/06/30 01:35:24;;;;;;;22.33;19.87;;;21.40;99.90;;;;;;5017378;28;20445;-49
2021/06/30 01:37:51;;;;;;;23.53;21.20;;;21.30;99.90;;;;;;5017443;28;20949;-52
2021/06/30 01:40:21;;;;;;;25.20;21.00;;;21.30;99.90;;;;;;5017100;28;20452;-46
2021/06/30 01:42:52;;;;;;;25.17;22.57;;;21.30;99.90;;;;;;5016931;28;20499;-45
2021/06/30 01:45:18;;;;;;;24.63;22.17;;;21.20;99.90;;;;;;5017013;28;20975;-49
2021/06/30 01:47:49;;;;;;;28.80;22.70;;;21.20;99.90;;;;;;5016892;28;20484;-47
2021/06/30 01:50:17;;;;;;;25.10;22.00;;;21.20;99.90;;;;;;5017120;28;20445;-49
2021/06/30 01:52:44;;;;;;;24.87;22.17;;;21.20;99.90;;;;;;5016819;28;20441;-48
2021/06/30 01:55:13;;;;;;;25.30;22.60;;;21.10;99.90;;;;;;5017426;28;20460;-52
2021/06/30 01:57:42;;;;;;;27.30;24.27;;;21.10;99.90;;;;;;5016645;28;20488;-53
2021/06/30 02:00:10;;;;;;;23.57;21.07;;;21.00;99.90;;;;;;5016034;28;20472;-53
2021/06/30 02:02:37;;;;;;;27.80;21.63;;;21.00;99.90;;;;;;5016697;28;20527;-50
2021/06/30 02:05:11;;;;;;;24.97;22.47;;;21.00;99.90;;;;;;5003227;28;20462;-52
2021/06/30 02:07:38;;;;;;;25.00;22.13;;;21.00;99.90;;;;;;4997008;28;20431;-51
2021/06/30 02:10:09;;;;;;;27.10;23.40;;;21.10;99.90;;;;;;4997223;28;20462;-48
2021/06/30 02:12:37;;;;;;;27.70;24.40;;;21.10;99.90;;;;;;5013065;28;20448;-47
2021/06/30 02:15:08;;;;;;;30.47;23.17;;;21.10;99.90;;;;;;5016347;28;20453;-49
2021/06/30 02:17:35;;;;;;;23.40;20.77;;;21.10;99.90;;;;;;5016470;28;21098;-50
2021/06/30 02:20:01;;;;;;;27.20;23.20;;;21.00;99.90;;;;;;5016500;28;20448;-50
2021/06/30 02:22:28;;;;;;;25.30;22.70;;;21.00;99.90;;;;;;5016582;28;20902;-46
2021/06/30 02:24:58;;;;;;;32.03;25.13;;;21.00;99.90;;;;;;5016482;28;20453;-51
2021/06/30 02:27:25;;;;;;;30.10;24.77;;;20.90;99.90;;;;;;5016164;28;20930;-50
2021/06/30 02:29:52;;;;;;;26.30;23.50;;;20.90;99.90;;;;;;5016082;28;20581;-47
2021/06/30 02:32:20;;;;;;;26.70;23.77;;;20.90;99.90;;;;;;5026558;23;20993;-46
2021/06/30 02:34:48;;;;;;;29.20;24.53;;;20.80;99.90;;;;;;5015146;28;21013;-47
2021/06/30 02:37:15;;;;;;;26.20;23.40;;;20.80;99.90;;;;;;5016342;28;20449;-47
2021/06/30 02:39:45;;;;;;;29.47;26.27;;;20.80;99.90;;;;;;5016258;28;20857;-45
2021/06/30 02:42:11;;;;;;;27.50;24.60;;;20.80;99.90;;;;;;5002607;28;20453;-48
2021/06/30 02:44:38;;;;;;;27.80;24.40;;;20.90;99.90;;;;;;4996202;28;20446;-47
2021/06/30 02:47:05;;;;;;;30.77;25.80;;;20.90;99.90;;;;;;4996173;28;20501;-45
2021/06/30 02:49:33;;;;;;;29.37;26.20;;;20.90;99.90;;;;;;4996415;28;20752;-47
2021/06/30 02:51:59;;;;;;;31.83;26.13;;;20.90;99.90;;;;;;4996352;28;20498;-45
2021/06/30 02:54:26;;;;;;;28.23;24.13;;;20.90;99.90;;;;;;4996282;28;20446;-46
2021/06/30 02:56:53;;;;;;;28.30;23.80;;;20.90;99.90;;;;;;4996372;28;20454;-45
2021/06/30 02:59:20;;;;;;;28.50;24.13;;;20.90;99.90;;;;;;4996011;28;20486;-45
2021/06/30 03:01:46;;;;;;;27.97;24.10;;;20.90;99.90;;;;;;4998340;28;20934;-46
2021/06/30 03:04:13;;;;;;;29.60;25.10;;;20.90;99.90;;;;;;5000187;28;20508;-47
2021/06/30 03:06:41;;;;;;;23.80;21.07;;;21.00;99.90;;;;;;4998818;28;20446;-49
2021/06/30 03:09:07;;;;;;;24.67;22.03;;;20.90;99.90;;;;;;4997780;28;20454;-48
2021/06/30 03:11:35;;;;;;;25.80;23.10;;;20.90;99.90;;;;;;4995022;28;20446;-51
2021/06/30 03:14:01;;;;;;;24.53;20.70;;;20.80;99.90;;;;;;5007389;28;20449;-50
2021/06/30 03:16:31;;;;;;;25.63;21.57;;;20.80;99.90;;;;;;5018094;28;20445;-51
2021/06/30 03:18:57;;;;;;;25.93;20.90;;;20.80;99.90;;;;;;5018517;28;20477;-51
2021/06/30 03:21:24;;;;;;;21.23;18.90;;;20.80;99.90;;;;;;5016385;28;20592;-49
2021/06/30 03:23:52;;;;;;;23.57;20.53;;;20.80;99.90;;;;;;5016800;28;20508;-53
2021/06/30 03:26:19;;;;;;;28.37;23.17;;;20.90;99.90;;;;;;5016639;28;20503;-53
2021/06/30 03:28:46;;;;;;;25.67;23.00;;;20.90;99.90;;;;;;5017572;28;20503;-53
2021/06/30 03:31:12;;;;;;;23.17;20.77;;;20.90;99.90;;;;;;5017274;28;20449;-50
2021/06/30 03:33:40;;;;;;;21.63;19.27;;;21.00;99.90;;;;;;5016443;28;20473;-51
2021/06/30 03:36:06;;;;;;;22.93;20.03;;;21.00;99.90;;;;;;5019073;28;20484;-50
2021/06/30 03:38:34;;;;;;;23.67;21.10;;;21.00;99.90;;;;;;5018256;28;20477;-50
2021/06/30 03:41:02;;;;;;;21.53;19.33;;;21.00;99.90;;;;;;5019096;28;20433;-51
2021/06/30 03:43:29;;;;;;;20.90;18.33;;;21.00;99.90;;;;;;5016814;28;20538;-53
2021/06/30 03:45:56;;;;;;;21.80;19.70;;;21.00;99.90;;;;;;5018100;28;20453;-52
2021/06/30 03:48:22;;;;;;;22.60;20.23;;;21.20;99.90;;;;;;5016443;28;20480;-53
2021/06/30 03:50:49;;;;;;;22.13;19.77;;;21.20;99.90;;;;;;5020290;28;20484;-46
2021/06/30 03:53:16;;;;;;;23.53;18.90;;;21.20;99.90;;;;;;5021598;28;20457;-48
2021/06/30 03:55:43;;;;;;;21.00;18.47;;;21.20;99.90;;;;;;5018070;28;20513;-51
2021/06/30 03:58:11;;;;;;;21.10;18.90;;;21.20;99.90;;;;;;5015028;28;20453;-49
2021/06/30 04:00:37;;;;;;;24.77;18.83;;;21.10;99.90;;;;;;5014403;28;20457;-49
2021/06/30 04:03:07;;;;;;;21.80;19.60;;;21.10;99.90;;;;;;5018249;28;20461;-46
2021/06/30 04:05:33;;;;;;;24.10;21.53;;;21.10;99.90;;;;;;5008530;28;20458;-49
2021/06/30 04:08:00;;;;;;;24.60;21.20;;;21.10;99.90;;;;;;5012333;28;20549;-49
2021/06/30 04:10:27;;;;;;;28.00;20.30;;;21.00;99.90;;;;;;5014122;28;20452;-49
2021/06/30 04:12:53;;;;;;;24.77;19.97;;;21.00;99.90;;;;;;5014013;28;20441;-48
2021/06/30 04:15:22;;;;;;;23.57;21.30;;;20.90;99.90;;;;;;5014840;28;20445;-53
2021/06/30 04:17:48;;;;;;;23.30;20.80;;;20.90;99.90;;;;;;5014688;28;20458;-50
2021/06/30 04:20:15;;;;;;;22.33;20.13;;;20.80;99.90;;;;;;5016631;28;20473;-48
2021/06/30 04:22:42;;;;;;;23.17;20.23;;;20.80;99.90;;;;;;5015194;28;20508;-51
2021/06/30 04:25:10;;;;;;;23.40;20.97;;;20.80;99.90;;;;;;5017119;28;20469;-50
2021/06/30 04:27:37;;;;;;;23.27;20.77;;;20.80;99.90;;;;;;5013325;28;20449;-53
2021/06/30 04:30:09;;;;;;;24.27;21.77;;;20.70;99.90;;;;;;5015951;28;20438;-49
2021/06/30 04:32:37;;;;;;;24.07;21.47;;;20.70;99.90;;;;;;5015496;28;20481;-49
2021/06/30 04:35:07;;;;;;;23.87;21.23;;;20.70;99.90;;;;;;4996005;28;20585;-49
2021/06/30 04:37:34;;;;;;;24.60;21.30;;;20.70;99.90;;;;;;4996422;28;20446;-52
2021/06/30 04:40:01;;;;;;;27.00;21.10;;;20.70;99.90;;;;;;4997092;28;20547;-48
2021/06/30 04:42:28;;;;;;;25.93;22.93;;;20.70;99.90;;;;;;4996512;28;20858;-52
2021/06/30 04:44:54;;;;;;;24.40;20.93;;;20.70;99.90;;;;;;4997332;28;20867;-46
2021/06/30 04:47:21;;;;;;;22.73;19.57;;;20.70;99.90;;;;;;4997290;28;20962;-46
2021/06/30 04:49:49;;;;;;;21.77;19.43;;;20.60;99.90;;;;;;4996970;28;20820;-48
2021/06/30 04:52:15;;;;;;;23.93;20.07;;;20.60;99.90;;;;;;4997969;28;20505;-46
2021/06/30 04:54:42;;;;;;;21.43;18.60;;;20.60;99.90;;;;;;4996121;28;20775;-49
2021/06/30 04:57:09;;;;;;;22.77;20.33;;;20.60;99.90;;;;;;4996353;28;20457;-48
2021/06/30 04:59:36;;;;;;;25.20;20.90;;;20.70;99.90;;;;;;4996440;28;20474;-50
2021/06/30 05:02:03;;;;;;;21.30;18.57;;;20.60;99.90;;;;;;4995861;28;20772;-47
2021/06/30 05:04:29;;;;;;;21.20;18.30;;;20.60;99.90;;;;;;4999272;28;20830;-50
2021/06/30 05:06:57;;;;;;;20.63;18.50;;;20.60;99.90;;;;;;4996993;28;20524;-51
2021/06/30 05:09:26;;;;;;;20.80;18.60;;;20.60;99.90;;;;;;4998092;28;20438;-51
2021/06/30 05:11:52;;;;;;;19.00;16.97;;;20.50;99.90;;;;;;4997854;28;20501;-47
2021/06/30 05:14:19;;;;;;;21.93;16.77;;;20.50;99.90;;;;;;4997926;28;20827;-50
2021/06/30 05:16:45;;;;;;;19.77;17.80;;;20.50;99.90;;;;;;4999380;28;20915;-48
2021/06/30 05:19:12;;;;;;;18.97;16.97;;;20.60;99.90;;;;;;4997066;28;20886;-50
2021/06/30 05:21:39;;;;;;;18.53;15.97;;;20.60;99.90;;;;;;4995835;28;20438;-49
2021/06/30 05:24:07;;;;;;;20.73;18.53;;;20.60;99.90;;;;;;4995758;28;20457;-49
2021/06/30 05:26:34;;;;;;;17.13;15.33;;;20.60;99.90;;;;;;4994373;28;20438;-52
2021/06/30 05:29:00;;;;;;;17.37;15.47;;;20.60;99.90;;;;;;4989827;28;20500;-49
2021/06/30 05:31:27;;;;;;;18.03;15.87;;;20.60;99.90;;;;;;4975038;28;20912;-51
2021/06/30 05:33:54;;;;;;;19.50;16.27;;;20.70;99.90;;;;;;4986171;28;20470;-50
2021/06/30 05:36:20;;;;;;;15.60;14.00;;;20.60;99.90;;;;;;4996791;28;20453;-52
2021/06/30 05:38:47;;;;;;;16.77;15.17;;;20.50;99.90;;;;;;4998803;28;20481;-56
2021/06/30 05:41:15;;;;;;;17.30;15.60;;;20.60;99.90;;;;;;4997556;28;20450;-50
2021/06/30 05:43:43;;;;;;;17.80;15.20;;;20.50;99.90;;;;;;4997566;28;20771;-50
2021/06/30 05:46:09;;;;;;;15.37;13.87;;;20.50;99.90;;;;;;4997384;28;20508;-51
2021/06/30 05:48:36;;;;;;;14.67;13.13;;;20.50;99.90;;;;;;5279937;23;20496;-50
2021/06/30 05:51:03;;;;;;;15.27;13.60;;;20.40;99.90;;;;;;4944876;29;20460;-48
2021/06/30 05:53:30;;;;;;;13.47;12.07;;;20.30;99.90;;;;;;4940182;29;20449;-48
2021/06/30 05:55:56;;;;;;;13.23;12.00;;;20.30;99.90;;;;;;4934646;29;20466;-51
2021/06/30 05:58:24;;;;;;;14.20;12.80;;;20.30;99.90;;;;;;4932197;29;20465;-52
2021/06/30 06:00:51;;;;;;;14.17;12.77;;;20.20;99.90;;;;;;4933425;29;20524;-48
2021/06/30 06:03:17;;;;;;;13.70;12.37;;;20.20;99.90;;;;;;4935917;29;20451;-51
2021/06/30 06:05:44;;;;;;;14.07;12.67;;;20.30;99.90;;;;;;4931865;29;20989;-50
2021/06/30 06:08:11;;;;;;;14.93;13.43;;;20.30;99.90;;;;;;4929401;29;20547;-54
2021/06/30 06:10:37;;;;;;;15.90;14.03;;;20.30;99.90;;;;;;4931090;29;20441;-47
2021/06/30 06:13:05;;;;;;;15.13;13.70;;;20.30;99.90;;;;;;4927765;29;20441;-52
2021/06/30 06:15:34;;;;;;;16.10;14.40;;;20.30;99.90;;;;;;4921320;29;20462;-50
2021/06/30 06:18:01;;;;;;;15.43;13.83;;;20.40;99.90;;;;;;4930540;29;20449;-50
2021/06/30 06:20:28;;;;;;;16.70;13.43;;;20.30;99.90;;;;;;4935812;29;20783;-48
2021/06/30 06:22:55;;;;;;;16.43;14.80;;;20.30;99.90;;;;;;4933636;29;20442;-48
2021/06/30 06:25:21;;;;;;;15.90;14.33;;;20.30;99.90;;;;;;4919927;29;20449;-48
2021/06/30 06:27:48;;;;;;;14.77;13.27;;;20.30;99.90;;;;;;4935907;29;20476;-50
2021/06/30 06:30:16;;;;;;;19.60;17.27;;;20.50;99.90;;;;;;4933206;29;20445;-53
2021/06/30 06:32:44;;;;;;;19.47;16.30;;;20.50;99.90;;;;;;4919846;29;20564;-47
2021/06/30 06:35:11;;;;;;;17.53;15.83;;;20.60;99.90;;;;;;4934986;29;20990;-50
2021/06/30 06:37:38;;;;;;;16.87;15.13;;;20.70;99.90;;;;;;4926414;29;20445;-51
2021/06/30 06:40:07;;;;;;;15.37;13.83;;;20.70;99.90;;;;;;4938002;29;20984;-51
2021/06/30 06:42:34;;;;;;;16.37;14.27;;;20.70;99.90;;;;;;4927251;29;20508;-51
2021/06/30 06:45:01;;;;;;;16.33;14.67;;;20.70;99.90;;;;;;4929245;29;20445;-48
2021/06/30 06:47:27;;;;;;;15.77;14.27;;;20.60;99.90;;;;;;4929862;29;20480;-49
2021/06/30 06:49:55;;;;;;;14.90;13.40;;;20.60;99.90;;;;;;4932152;29;20441;-49
2021/06/30 06:52:22;;;;;;;13.60;12.20;;;20.50;99.90;;;;;;4929042;29;20951;-51
2021/06/30 06:54:48;;;;;;;16.07;14.57;;;20.50;99.90;;;;;;4927819;29;20449;-49
2021/06/30 06:57:15;;;;;;;15.10;13.60;;;20.50;99.90;;;;;;4932201;29;20478;-51
2021/06/30 06:59:42;;;;;;;14.37;12.87;;;20.50;99.90;;;;;;4919955;29;20537;-51
2021/06/30 07:02:08;;;;;;;13.73;12.43;;;20.40;99.90;;;;;;4925397;29;20442;-50
2021/06/30 07:04:35;;;;;;;13.13;11.60;;;20.30;99.90;;;;;;4929829;29;20915;-49
2021/06/30 07:07:04;;;;;;;16.07;13.87;;;20.30;99.90;;;;;;4935408;29;20845;-46
2021/06/30 07:09:30;;;;;;;14.03;12.63;;;20.30;99.90;;;;;;4925719;29;20445;-49
2021/06/30 07:11:57;;;;;;;14.27;12.87;;;20.40;99.90;;;;;;4932287;29;20832;-51
2021/06/30 07:14:23;;;;;;;15.67;13.17;;;20.50;99.90;;;;;;4928897;29;20450;-48
2021/06/30 07:16:50;;;;;;;15.80;13.10;;;20.60;99.90;;;;;;4926072;29;20506;-50
2021/06/30 07:19:17;;;;;;;12.20;11.00;;;20.60;99.90;;;;;;4929137;29;20489;-56
2021/06/30 07:21:44;;;;;;;11.73;10.53;;;20.50;99.90;;;;;;4930596;29;20535;-50
2021/06/30 07:24:12;;;;;;;17.23;10.97;;;20.50;99.90;;;;;;4926288;29;20458;-48
2021/06/30 07:26:39;;;;;;;11.70;10.50;;;20.40;99.90;;;;;;4921343;29;20509;-49
2021/06/30 07:29:09;;;;;;;11.83;10.60;;;20.40;99.90;;;;;;4920629;29;20529;-47
2021/06/30 07:31:35;;;;;;;13.33;11.10;;;20.40;99.90;;;;;;4920611;29;21000;-49
2021/06/30 07:34:02;;;;;;;11.30;10.20;;;20.40;99.90;;;;;;4920594;29;20599;-48
2021/06/30 07:36:29;;;;;;;13.70;10.70;;;20.40;99.90;;;;;;4920789;29;20469;-50
2021/06/30 07:38:55;;;;;;;12.70;11.50;;;20.40;99.90;;;;;;4921817;29;20472;-51
2021/06/30 07:41:23;;;;;;;11.57;10.17;;;20.40;99.90;;;;;;4926430;29;20476;-53
2021/06/30 07:43:50;;;;;;;11.80;10.30;;;20.50;99.90;;;;;;4932484;29;20449;-48
2021/06/30 07:46:17;;;;;;;12.30;10.73;;;20.40;99.90;;;;;;4930256;29;20452;-48
2021/06/30 07:48:44;;;;;;;14.10;10.63;;;20.40;99.90;;;;;;4939200;29;20481;-46
2021/06/30 07:51:10;;;;;;;13.50;12.20;;;20.40;99.90;;;;;;4930873;29;20517;-49
2021/06/30 07:53:37;;;;;;;10.13;9.13;;;20.40;99.90;;;;;;4940307;29;20468;-47
2021/06/30 07:56:04;;;;;;;10.60;9.60;;;20.40;99.90;;;;;;4939968;29;20453;-49
2021/06/30 07:58:32;;;;;;;12.70;10.70;;;20.40;99.90;;;;;;4938975;29;20453;-51
2021/06/30 08:00:59;;;;;;;9.37;8.47;;;20.30;99.90;;;;;;4939165;29;21041;-47
2021/06/30 08:03:25;;;;;;;9.50;8.63;;;20.30;99.90;;;;;;4938875;29;20577;-49
2021/06/30 08:05:52;;;;;;;9.83;8.70;;;20.30;99.90;;;;;;4938760;29;20445;-50
2021/06/30 08:08:18;;;;;;;11.87;8.53;;;20.30;99.90;;;;;;4938430;29;20440;-49
2021/06/30 08:10:45;;;;;;;10.70;8.20;;;20.30;99.90;;;;;;4938829;29;20441;-50
2021/06/30 08:13:12;;;;;;;8.97;8.13;;;20.30;99.90;;;;;;4939566;29;20456;-53
2021/06/30 08:15:40;;;;;;;9.70;8.70;;;20.40;99.90;;;;;;4938822;29;20457;-49
2021/06/30 08:18:06;;;;;;;8.63;7.83;;;20.40;99.90;;;;;;4938824;29;21002;-49
2021/06/30 08:20:33;;;;;;;8.07;7.27;;;20.30;99.90;;;;;;4939196;29;20520;-50
2021/06/30 08:23:00;;;;;;;11.80;9.40;;;20.30;99.90;;;;;;4938968;29;20464;-51
2021/06/30 08:25:27;;;;;;;9.33;8.43;;;20.30;99.90;;;;;;4939062;29;20472;-53
2021/06/30 08:27:54;;;;;;;9.40;8.40;;;20.20;99.90;;;;;;4938925;29;20986;-52
2021/06/30 08:30:21;;;;;;;8.63;7.73;;;20.10;99.90;;;;;;4939146;29;20453;-52
2021/06/30 08:32:49;;;;;;;9.27;8.37;;;20.00;99.90;;;;;;4938812;29;20456;-54
2021/06/30 08:35:16;;;;;;;8.83;7.93;;;19.90;99.90;;;;;;4938875;29;20476;-53
2021/06/30 08:37:44;;;;;;;10.30;9.30;;;20.00;99.90;;;;;;4939138;29;20445;-50
2021/06/30 08:40:13;;;;;;;9.70;8.70;;;20.00;99.90;;;;;;4938828;29;20468;-51
2021/06/30 08:42:41;;;;;;;12.03;9.17;;;20.00;99.90;;;;;;4938805;29;20468;-50
2021/06/30 08:45:09;;;;;;;12.23;10.90;;;20.00;99.90;;;;;;4938826;29;20566;-53
2021/06/30 08:47:36;;;;;;;11.17;8.93;;;20.00;99.90;;;;;;4935080;29;20558;-53
2021/06/30 08:50:07;;;;;;;10.73;8.57;;;20.00;99.90;;;;;;4920286;29;20768;-50
2021/06/30 08:52:35;;;;;;;10.17;9.17;;;19.90;99.90;;;;;;4919820;29;20909;-52
2021/06/30 08:55:03;;;;;;;9.30;8.40;;;20.00;99.90;;;;;;4920387;29;20457;-53
2021/06/30 08:57:31;;;;;;;8.63;7.83;;;20.10;99.90;;;;;;4920261;29;20748;-49
2021/06/30 08:59:58;;;;;;;9.43;8.53;;;20.10;99.90;;;;;;4918264;29;20494;-49
2021/06/30 09:02:28;;;;;;;9.97;8.97;;;20.10;99.90;;;;;;4920046;29;20529;-52
2021/06/30 09:05:12;;;;;;;8.90;7.80;;;20.10;99.90;;;;;;4918857;29;20454;-48
2021/06/30 09:07:41;;;;;;;8.30;6.67;;;20.10;99.90;;;;;;4918391;29;20481;-46
2021/06/30 09:10:09;;;;;;;7.40;6.07;;;20.00;99.90;;;;;;4920286;29;20454;-54
2021/06/30 09:12:38;;;;;;;8.47;7.53;;;19.90;99.90;;;;;;4921520;29;20464;-49
2021/06/30 09:15:30;;;;;;;11.10;8.40;;;19.80;99.90;;;;;;4922016;29;20459;-53
2021/06/30 09:18:17;;;;;;;9.60;7.40;;;19.80;99.90;;;;;;4917453;29;20469;-49
2021/06/30 09:20:44;;;;;;;8.40;7.53;;;19.90;99.90;;;;;;4921943;29;20466;-48
2021/06/30 09:23:13;;;;;;;9.50;8.57;;;19.90;99.90;;;;;;4922000;29;20449;-49
2021/06/30 09:25:41;;;;;;;7.53;6.73;;;19.90;99.90;;;;;;4921680;29;20476;-49
2021/06/30 09:28:21;;;;;;;7.40;6.60;;;19.90;99.90;;;;;;4921616;29;20465;-50
2021/06/30 09:31:02;;;;;;;7.37;6.50;;;19.90;99.90;;;;;;4922754;29;20477;-46
2021/06/30 09:33:46;;;;;;;11.67;6.40;;;19.90;99.90;;;;;;4922013;29;20465;-49
2021/06/30 09:36:13;;;;;;;7.53;5.53;;;20.00;99.90;;;;;;4921904;29;20786;-47
2021/06/30 09:38:43;;;;;;;6.17;5.60;;;20.00;99.90;;;;;;4921774;29;20450;-45
2021/06/30 09:41:20;;;;;;;6.63;5.20;;;19.90;99.90;;;;;;4921862;29;20572;-46
2021/06/30 09:43:46;;;;;;;6.97;5.97;;;19.90;99.90;;;;;;4921124;29;20488;-46
2021/06/30 09:46:22;;;;;;;6.20;5.60;;;19.90;99.90;;;;;;4921059;29;20528;-46
2021/06/30 09:48:55;;;;;;;7.57;6.87;;;20.00;99.90;;;;;;4934429;29;20790;-45
2021/06/30 09:51:22;;;;;;;7.33;6.60;;;19.90;99.90;;;;;;4939814;29;20494;-48
2021/06/30 09:53:51;;;;;;;7.60;6.83;;;19.90;99.90;;;;;;4939625;29;20457;-49
2021/06/30 09:56:33;;;;;;;6.47;5.70;;;19.80;99.90;;;;;;4939711;29;20457;-46
2021/06/30 09:59:01;;;;;;;5.20;4.70;;;19.80;99.90;;;;;;4928721;29;20520;-51
2021/06/30 10:01:28;;;;;;;5.50;4.80;;;19.90;99.90;;;;;;4920992;29;20497;-50
2021/06/30 10:03:55;;;;;;;5.57;4.93;;;19.90;99.90;;;;;;4921287;29;20494;-50
2021/06/30 10:06:26;;;;;;;7.87;6.07;;;19.80;99.90;;;;;;4921470;29;20517;-46
2021/06/30 10:08:55;;;;;;;5.83;5.30;;;19.90;99.90;;;;;;4920974;29;20453;-52
2021/06/30 10:11:22;;;;;;;11.23;5.60;;;19.90;99.90;;;;;;4921054;29;20442;-46
2021/06/30 10:13:49;;;;;;;6.23;5.60;;;19.90;99.90;;;;;;4921389;29;20506;-48
2021/06/30 10:16:18;;;;;;;7.20;6.40;;;20.00;99.90;;;;;;4921260;29;20476;-53
2021/06/30 10:18:45;;;;;;;6.83;6.13;;;20.00;99.90;;;;;;4920907;29;20922;-52
2021/06/30 10:21:12;;;;;;;6.83;6.23;;;20.10;99.90;;;;;;4920456;29;20504;-48
2021/06/30 10:23:39;;;;;;;6.97;6.27;;;20.20;99.90;;;;;;4920641;29;20473;-51
2021/06/30 10:26:08;;;;;;;8.43;7.53;;;20.20;99.90;;;;;;4920617;29;20458;-46
2021/06/30 10:28:34;;;;;;;8.03;7.27;;;20.20;99.90;;;;;;4920000;29;20464;-49
2021/06/30 10:31:01;;;;;;;8.33;7.53;;;20.30;99.90;;;;;;4920085;29;20449;-52
2021/06/30 10:33:33;;;;;;;8.40;7.60;;;20.20;99.90;;;;;;4919977;29;20480;-51
2021/06/30 10:36:02;;;;;;;9.37;8.20;;;20.20;99.90;;;;;;4920083;29;20454;-49
2021/06/30 10:38:48;;;;;;;9.20;8.30;;;20.20;99.90;;;;;;4919960;29;20454;-50
2021/06/30 10:41:38;;;;;;;7.87;7.07;;;20.30;99.90;;;;;;4919845;29;20496;-49
2021/06/30 10:44:09;;;;;;;9.30;7.53;;;20.20;99.90;;;;;;4920120;29;20426;-50
2021/06/30 10:46:36;;;;;;;8.60;7.13;;;20.20;99.90;;;;;;4920225;29;20457;-45
2021/06/30 10:49:24;;;;;;;10.30;8.37;;;20.10;99.90;;;;;;4921440;29;20462;-48
2021/06/30 10:51:52;;;;;;;9.63;8.60;;;20.00;99.90;;;;;;4922618;29;20772;-45
2021/06/30 10:54:40;;;;;;;11.07;9.67;;;20.00;99.90;;;;;;4920790;29;20464;-49
2021/06/30 10:57:27;;;;;;;10.20;9.20;;;19.90;99.90;;;;;;4920392;29;20449;-51
2021/06/30 11:00:19;;;;;;;11.90;10.53;;;19.90;99.90;;;;;;4920167;29;20438;-47
2021/06/30 11:03:06;;;;;;;8.80;7.93;;;19.90;99.90;;;;;;4920123;29;20465;-52
2021/06/30 11:05:34;;;;;;;9.77;8.83;;;20.00;99.90;;;;;;4920192;29;20847;-49
2021/06/30 11:08:01;;;;;;;10.50;9.10;;;19.90;99.90;;;;;;4920209;29;20466;-50
2021/06/30 11:10:51;;;;;;;9.77;8.87;;;19.90;99.90;;;;;;4920731;29;20521;-48
2021/06/30 11:13:19;;;;;;;9.63;8.63;;;19.90;99.90;;;;;;4920212;29;20465;-51
2021/06/30 11:15:46;;;;;;;9.10;8.30;;;19.80;99.90;;;;;;4920420;29;20468;-47
2021/06/30 11:18:43;;;;;;;9.20;8.27;;;19.90;99.90;;;;;;4921014;29;20519;-47
2021/06/30 11:21:11;;;;;;;9.97;8.47;;;19.80;99.90;;;;;;4921844;29;20970;-48
2021/06/30 11:23:41;;;;;;;9.10;8.20;;;19.80;99.90;;;;;;4921843;29;20469;-48
2021/06/30 11:26:36;;;;;;;10.97;9.93;;;19.80;99.90;;;;;;4920272;29;20450;-48
2021/06/30 11:29:46;;;;;;;10.57;9.50;;;19.70;99.90;;;;;;4920224;29;20496;-47
2021/06/30 11:32:44;;;;;;;9.57;8.67;;;19.70;99.90;;;;;;4919512;29;20804;-48
2021/06/30 11:35:27;;;;;;;9.80;8.50;;;19.80;99.90;;;;;;4920239;29;20850;-53
2021/06/30 11:38:04;;;;;;;13.27;8.43;;;19.90;99.90;;;;;;4919587;29;20438;-48
2021/06/30 11:40:34;;;;;;;8.77;7.87;;;19.90;99.90;;;;;;4920533;29;20545;-50
2021/06/30 11:43:02;;;;;;;8.63;7.83;;;19.90;99.90;;;;;;4919494;29;20859;-45
2021/06/30 11:45:31;;;;;;;8.73;7.90;;;19.90;99.90;;;;;;4920037;29;20538;-52
2021/06/30 11:48:01;;;;;;;9.67;8.73;;;20.00;99.90;;;;;;4918552;29;20993;-51
2021/06/30 11:50:30;;;;;;;9.43;8.47;;;20.20;99.90;;;;;;4919784;29;20470;-46
2021/06/30 11:52:59;;;;;;;9.97;8.97;;;20.10;99.90;;;;;;4919747;29;20517;-50
2021/06/30 11:55:27;;;;;;;8.70;7.90;;;20.10;99.90;;;;;;4919557;29;20438;-49
2021/06/30 11:57:56;;;;;;;7.63;6.90;;;20.00;99.90;;;;;;4919483;29;20979;-47
2021/06/30 12:00:25;;;;;;;7.93;7.23;;;20.00;99.90;;;;;;4918811;29;20457;-47
2021/06/30 12:02:55;;;;;;;9.90;7.70;;;20.00;99.90;;;;;;4918700;29;20450;-52
2021/06/30 12:05:24;;;;;;;8.83;7.93;;;20.00;99.90;;;;;;4918577;29;20453;-48
2021/06/30 12:07:54;;;;;;;9.33;8.40;;;19.90;99.90;;;;;;4918118;29;20986;-50
2021/06/30 12:10:21;;;;;;;8.07;7.37;;;19.90;99.90;;;;;;4918165;29;20501;-49
2021/06/30 12:12:49;;;;;;;10.53;9.00;;;19.90;99.90;;;;;;4919117;29;20454;-52
2021/06/30 12:15:17;;;;;;;9.43;8.53;;;20.00;99.90;;;;;;4919576;29;20916;-45
2021/06/30 12:17:47;;;;;;;8.53;7.80;;;20.00;99.90;;;;;;4918513;29;20445;-47
2021/06/30 12:20:17;;;;;;;10.20;9.10;;;19.90;99.90;;;;;;4918348;29;20456;-48
2021/06/30 12:22:46;;;;;;;12.10;8.27;;;19.90;99.90;;;;;;4918390;29;20493;-46
2021/06/30 12:25:22;;;;;;;9.30;8.27;;;19.90;99.90;;;;;;4918768;29;20469;-47
2021/06/30 12:27:51;;;;;;;9.70;8.33;;;20.00;99.90;;;;;;4919463;29;20457;-47
2021/06/30 12:30:20;;;;;;;10.73;9.53;;;20.00;99.90;;;;;;4919294;29;20840;-48
2021/06/30 12:32:48;;;;;;;8.20;7.40;;;20.10;99.90;;;;;;4918487;29;20885;-48
2021/06/30 12:35:22;;;;;;;8.03;7.00;;;20.20;99.90;;;;;;4917856;29;20453;-46
2021/06/30 12:37:56;;;;;;;7.37;5.67;;;20.20;99.90;;;;;;4918279;29;20771;-48
2021/06/30 12:40:23;;;;;;;5.10;4.70;;;20.10;99.90;;;;;;4918222;29;20471;-45
2021/06/30 12:42:56;;;;;;;10.70;4.93;;;20.20;99.90;;;;;;4917796;29;20493;-47